Time;durP1;ratioP1;P1;durP2;ratioP2;P2;SDS_P1;SDS_P2;PMS_P1;PMS_P2;Temp;Humidity;BMP_temperature;BMP_pressure;BME280_temperature;BME280_humidity;BME280_pressure;Samples;Min_cycle;Max_cycle;Signal;HPM_P1;HPM_P2
2023/06/26 00:01:20;;;;;;;8.93;6.83;;;;;;;;;;6245775;23;20370;-88
2023/06/26 00:03:46;;;;;;;13.33;7.80;;;;;;;;;;6221184;23;20454;-88
2023/06/26 00:06:12;;;;;;;7.60;6.03;;;;;;;;;;6222700;23;20436;-89
2023/06/26 00:08:38;;;;;;;9.17;7.10;;;;;;;;;;6220797;23;20382;-88
2023/06/26 00:11:04;;;;;;;8.90;7.17;;;;;;;;;;6222836;23;20457;-89
2023/06/26 00:13:30;;;;;;;6.97;6.27;;;;;;;;;;6222199;23;20433;-90
2023/06/26 00:15:56;;;;;;;9.93;6.80;;;;;;;;;;6222372;23;20464;-89
2023/06/26 00:18:23;;;;;;;9.83;7.20;;;;;;;;;;6221757;23;20379;-89
2023/06/26 00:20:49;;;;;;;11.40;7.60;;;;;;;;;;6224120;23;20427;-90
2023/06/26 00:23:16;;;;;;;11.60;7.57;;;;;;;;;;6224575;23;20377;-89
2023/06/26 00:25:42;;;;;;;10.20;7.73;;;;;;;;;;6226979;23;20385;-89
2023/06/26 00:28:09;;;;;;;8.53;7.40;;;;;;;;;;6250279;23;21171;-89
2023/06/26 00:30:35;;;;;;;11.23;7.23;;;;;;;;;;6226887;23;20381;-90
2023/06/26 00:33:01;;;;;;;8.90;7.40;;;;;;;;;;6250820;22;20464;-89
2023/06/26 00:35:27;;;;;;;6.87;6.17;;;;;;;;;;6224657;23;20366;-89
2023/06/26 00:37:53;;;;;;;10.83;6.93;;;;;;;;;;6225575;23;20451;-89
2023/06/26 00:40:19;;;;;;;7.33;5.77;;;;;;;;;;6226090;23;20429;-90
2023/06/26 00:42:45;;;;;;;9.80;7.40;;;;;;;;;;6250814;23;20392;-89
2023/06/26 00:45:11;;;;;;;8.17;6.57;;;;;;;;;;6225082;23;20402;-89
2023/06/26 00:47:37;;;;;;;8.30;6.97;;;;;;;;;;6223520;23;20485;-88
2023/06/26 00:50:04;;;;;;;9.27;6.40;;;;;;;;;;6225888;23;20877;-91
2023/06/26 00:52:30;;;;;;;7.70;6.87;;;;;;;;;;6227025;23;20382;-91
2023/06/26 00:54:56;;;;;;;9.70;6.80;;;;;;;;;;6252205;23;20423;-90
2023/06/26 00:57:22;;;;;;;9.00;7.90;;;;;;;;;;6224053;23;20377;-89
2023/06/26 00:59:48;;;;;;;8.03;6.63;;;;;;;;;;6224686;23;21028;-89
2023/06/26 01:02:17;;;;;;;7.27;5.87;;;;;;;;;;6225794;23;20398;-89
2023/06/26 01:04:46;;;;;;;9.27;6.87;;;;;;;;;;6225891;23;20800;-89
2023/06/26 01:07:12;;;;;;;9.00;7.30;;;;;;;;;;6224872;23;20474;-89
2023/06/26 01:09:38;;;;;;;8.63;6.87;;;;;;;;;;6249990;23;20790;-89
2023/06/26 01:12:04;;;;;;;11.67;6.50;;;;;;;;;;6250028;23;20385;-90
2023/06/26 01:14:32;;;;;;;8.87;6.50;;;;;;;;;;6225986;23;20850;-89
2023/06/26 01:16:58;;;;;;;7.73;6.60;;;;;;;;;;6225373;23;20386;-89
2023/06/26 01:19:28;;;;;;;8.67;6.30;;;;;;;;;;6224354;23;20393;-89
2023/06/26 01:22:14;;;;;;;10.27;6.63;;;;;;;;;;6250269;23;20448;-90
2023/06/26 01:24:40;;;;;;;8.60;7.10;;;;;;;;;;6224307;23;20378;-89
2023/06/26 01:27:06;;;;;;;10.30;7.43;;;;;;;;;;6225143;23;20480;-89
2023/06/26 01:29:32;;;;;;;8.83;6.40;;;;;;;;;;6250658;23;20362;-89
2023/06/26 01:31:58;;;;;;;10.83;6.83;;;;;;;;;;6222738;23;20423;-88
2023/06/26 01:34:24;;;;;;;8.13;6.00;;;;;;;;;;6223645;23;20374;-87
2023/06/26 01:36:50;;;;;;;8.97;7.20;;;;;;;;;;6221646;23;20386;-88
2023/06/26 01:39:16;;;;;;;10.20;6.13;;;;;;;;;;6222408;23;20374;-87
2023/06/26 01:41:42;;;;;;;9.23;6.40;;;;;;;;;;6222597;23;20436;-89
2023/06/26 01:44:13;;;;;;;11.93;6.80;;;;;;;;;;6247308;23;20370;-89
2023/06/26 01:46:39;;;;;;;9.93;7.00;;;;;;;;;;6248102;23;20414;-89
2023/06/26 01:49:23;;;;;;;7.07;6.37;;;;;;;;;;6248712;23;20437;-88
2023/06/26 01:51:52;;;;;;;9.20;7.40;;;;;;;;;;6249483;23;20363;-89
2023/06/26 01:54:19;;;;;;;8.30;6.60;;;;;;;;;;6222340;23;20385;-89
2023/06/26 01:56:45;;;;;;;8.43;5.63;;;;;;;;;;6223164;23;20402;-89
2023/06/26 01:59:13;;;;;;;7.77;5.80;;;;;;;;;;6224167;23;20385;-91
2023/06/26 02:01:40;;;;;;;8.97;8.00;;;;;;;;;;6221581;23;20872;-90
2023/06/26 02:04:05;;;;;;;8.70;6.20;;;;;;;;;;6220587;23;20379;-89
2023/06/26 02:06:31;;;;;;;9.03;6.60;;;;;;;;;;6221394;23;20440;-89
2023/06/26 02:08:57;;;;;;;8.97;7.13;;;;;;;;;;6223676;23;20422;-89
2023/06/26 02:11:24;;;;;;;7.40;6.00;;;;;;;;;;6222974;23;20412;-89
2023/06/26 02:13:49;;;;;;;7.60;6.80;;;;;;;;;;6222397;23;20382;-89
2023/06/26 02:16:15;;;;;;;7.00;6.07;;;;;;;;;;6221983;23;20726;-88
2023/06/26 02:18:41;;;;;;;9.33;7.50;;;;;;;;;;6223559;23;20455;-89
2023/06/26 02:21:07;;;;;;;6.90;5.77;;;;;;;;;;6222693;23;20417;-88
2023/06/26 02:23:33;;;;;;;7.90;6.63;;;;;;;;;;6220663;23;20441;-89
2023/06/26 02:26:00;;;;;;;8.30;6.63;;;;;;;;;;6223302;23;20412;-89
2023/06/26 02:28:26;;;;;;;7.90;6.60;;;;;;;;;;6221963;23;20381;-89
2023/06/26 02:30:52;;;;;;;9.40;6.67;;;;;;;;;;6248919;23;20393;-88
2023/06/26 02:33:18;;;;;;;8.60;6.60;;;;;;;;;;6221196;23;20402;-89
2023/06/26 02:35:44;;;;;;;10.13;6.87;;;;;;;;;;6221409;23;20873;-88
2023/06/26 02:38:12;;;;;;;8.50;6.73;;;;;;;;;;6222255;23;20382;-88
2023/06/26 02:40:38;;;;;;;8.07;6.63;;;;;;;;;;6223018;23;20382;-89
2023/06/26 02:43:04;;;;;;;8.63;6.73;;;;;;;;;;6220699;23;20388;-87
2023/06/26 02:45:30;;;;;;;8.57;6.53;;;;;;;;;;6221323;23;20461;-89
2023/06/26 02:47:56;;;;;;;9.17;6.23;;;;;;;;;;6222018;23;20743;-88
2023/06/26 02:50:22;;;;;;;8.57;7.00;;;;;;;;;;6224199;23;20402;-86
2023/06/26 02:52:52;;;;;;;10.07;7.47;;;;;;;;;;6221920;23;20374;-89
2023/06/26 02:55:18;;;;;;;8.10;6.40;;;;;;;;;;6222748;23;20378;-89
2023/06/26 02:57:44;;;;;;;9.93;6.63;;;;;;;;;;6223029;23;20375;-88
2023/06/26 03:00:11;;;;;;;9.43;6.57;;;;;;;;;;6220877;23;20374;-88
2023/06/26 03:02:37;;;;;;;10.40;8.43;;;;;;;;;;6222057;23;20880;-90
2023/06/26 03:05:04;;;;;;;7.50;6.17;;;;;;;;;;6221000;23;20900;-89
2023/06/26 03:07:30;;;;;;;8.23;6.53;;;;;;;;;;6220841;23;20509;-90
2023/06/26 03:09:56;;;;;;;6.90;5.30;;;;;;;;;;6225255;23;20402;-89
2023/06/26 03:12:22;;;;;;;9.47;6.77;;;;;;;;;;6224909;23;20400;-89
2023/06/26 03:14:48;;;;;;;9.70;6.93;;;;;;;;;;6226696;23;20443;-89
2023/06/26 03:17:14;;;;;;;9.40;7.50;;;;;;;;;;6224585;23;20378;-90
2023/06/26 03:19:40;;;;;;;8.70;6.80;;;;;;;;;;6250384;23;20369;-89
2023/06/26 03:22:05;;;;;;;9.23;7.40;;;;;;;;;;6224209;23;20367;-90
2023/06/26 03:24:31;;;;;;;9.87;7.70;;;;;;;;;;6225848;23;20394;-90
2023/06/26 03:26:57;;;;;;;8.97;6.33;;;;;;;;;;6222772;23;20445;-90
2023/06/26 03:29:23;;;;;;;7.73;6.93;;;;;;;;;;6225382;23;20432;-90
2023/06/26 03:31:50;;;;;;;7.50;6.23;;;;;;;;;;6223343;23;20382;-89
2023/06/26 03:34:16;;;;;;;10.00;6.33;;;;;;;;;;6223035;23;20382;-89
2023/06/26 03:36:42;;;;;;;7.10;6.20;;;;;;;;;;6223342;23;20597;-89
2023/06/26 03:39:08;;;;;;;9.47;6.90;;;;;;;;;;6224184;23;20382;-90
2023/06/26 03:41:34;;;;;;;11.60;7.03;;;;;;;;;;6249119;23;20373;-89
2023/06/26 03:44:01;;;;;;;8.27;7.00;;;;;;;;;;6224455;23;20766;-90
2023/06/26 03:46:26;;;;;;;7.87;6.40;;;;;;;;;;6223361;23;20976;-90
2023/06/26 03:48:54;;;;;;;7.70;6.63;;;;;;;;;;6224031;23;20382;-90
2023/06/26 03:51:20;;;;;;;8.73;7.00;;;;;;;;;;6249817;23;20501;-89
2023/06/26 03:53:46;;;;;;;8.30;6.90;;;;;;;;;;6224331;23;20440;-90
2023/06/26 03:56:13;;;;;;;7.20;6.50;;;;;;;;;;6223591;23;20382;-90
2023/06/26 03:58:39;;;;;;;6.60;5.90;;;;;;;;;;6225473;23;20382;-89
2023/06/26 04:01:05;;;;;;;10.20;6.93;;;;;;;;;;6227646;23;20402;-89
2023/06/26 04:03:31;;;;;;;7.60;6.43;;;;;;;;;;6222787;23;20378;-90
2023/06/26 04:05:57;;;;;;;8.20;6.90;;;;;;;;;;6225291;23;20386;-89
2023/06/26 04:08:26;;;;;;;8.40;7.13;;;;;;;;;;6223505;23;20413;-90
2023/06/26 04:10:53;;;;;;;8.67;6.33;;;;;;;;;;6226649;23;20382;-89
2023/06/26 04:13:19;;;;;;;7.83;6.90;;;;;;;;;;6223429;23;20374;-89
2023/06/26 04:15:45;;;;;;;8.30;6.50;;;;;;;;;;6249950;23;20425;-88
2023/06/26 04:18:14;;;;;;;8.90;6.70;;;;;;;;;;6223908;23;20435;-90
2023/06/26 04:20:40;;;;;;;8.47;7.13;;;;;;;;;;6249489;23;20374;-88
2023/06/26 04:23:06;;;;;;;8.20;6.23;;;;;;;;;;6221387;23;20378;-89
2023/06/26 04:25:32;;;;;;;11.57;6.53;;;;;;;;;;6247443;23;20392;-89
2023/06/26 04:27:58;;;;;;;10.40;7.80;;;;;;;;;;6223338;23;20421;-89
2023/06/26 04:30:24;;;;;;;8.17;6.80;;;;;;;;;;6226516;23;20374;-90
2023/06/26 04:32:50;;;;;;;8.13;6.70;;;;;;;;;;6224571;23;20398;-90
2023/06/26 04:35:16;;;;;;;8.30;6.40;;;;;;;;;;6225065;23;20385;-90
2023/06/26 04:37:42;;;;;;;8.73;7.10;;;;;;;;;;6223429;23;20379;-89
2023/06/26 04:40:09;;;;;;;7.63;6.60;;;;;;;;;;6226247;23;20378;-89
2023/06/26 04:42:35;;;;;;;9.17;6.40;;;;;;;;;;6224744;23;20895;-90
2023/06/26 04:45:02;;;;;;;10.53;7.10;;;;;;;;;;6229949;23;20390;-89
2023/06/26 04:47:28;;;;;;;10.00;7.87;;;;;;;;;;6223024;23;20500;-88
2023/06/26 04:49:55;;;;;;;10.23;7.47;;;;;;;;;;6221285;23;20896;-90
2023/06/26 04:52:21;;;;;;;8.27;6.17;;;;;;;;;;6224633;23;20373;-89
2023/06/26 04:54:47;;;;;;;9.37;7.00;;;;;;;;;;6223597;23;20917;-89
2023/06/26 04:57:14;;;;;;;7.80;6.60;;;;;;;;;;6223111;23;20444;-89
2023/06/26 04:59:47;;;;;;;6.70;6.00;;;;;;;;;;6224628;23;20446;-88
2023/06/26 05:02:14;;;;;;;8.37;7.00;;;;;;;;;;6225158;22;20387;-90
2023/06/26 05:04:42;;;;;;;9.10;7.77;;;;;;;;;;6222235;23;20388;-90
2023/06/26 05:07:08;;;;;;;9.97;6.60;;;;;;;;;;6223593;23;20422;-90
2023/06/26 05:09:34;;;;;;;9.03;5.93;;;;;;;;;;6224862;23;20385;-90
2023/06/26 05:12:00;;;;;;;11.13;7.57;;;;;;;;;;6251805;23;20370;-91
2023/06/26 05:14:26;;;;;;;7.33;6.23;;;;;;;;;;6224447;23;20404;-90
2023/06/26 05:16:52;;;;;;;9.10;6.97;;;;;;;;;;6225032;23;20765;-91
2023/06/26 05:19:18;;;;;;;10.10;7.67;;;;;;;;;;6224364;23;20704;-92
2023/06/26 05:21:44;;;;;;;9.37;7.07;;;;;;;;;;6228604;23;20382;-91
2023/06/26 05:24:10;;;;;;;8.40;6.90;;;;;;;;;;6227575;23;20378;-91
2023/06/26 05:26:36;;;;;;;9.60;7.07;;;;;;;;;;6227469;23;20417;-91
2023/06/26 05:29:02;;;;;;;7.67;6.60;;;;;;;;;;6228134;23;20440;-90
2023/06/26 05:31:28;;;;;;;10.13;7.00;;;;;;;;;;6228390;23;20379;-90
2023/06/26 05:33:54;;;;;;;7.83;6.77;;;;;;;;;;6225282;23;20382;-90
2023/06/26 05:36:20;;;;;;;7.03;6.33;;;;;;;;;;6228365;23;20386;-91
2023/06/26 05:38:48;;;;;;;9.50;6.83;;;;;;;;;;6226473;23;20409;-90
2023/06/26 05:41:17;;;;;;;8.47;6.23;;;;;;;;;;6164919;23;20387;-92
2023/06/26 05:43:43;;;;;;;7.40;6.17;;;;;;;;;;6159896;23;20384;-90
2023/06/26 05:46:09;;;;;;;8.70;7.33;;;;;;;;;;6135080;23;20760;-91
2023/06/26 05:48:35;;;;;;;7.83;6.20;;;;;;;;;;6135612;23;20373;-91
2023/06/26 05:51:02;;;;;;;7.17;5.93;;;;;;;;;;6136231;23;20380;-92
2023/06/26 05:53:29;;;;;;;10.10;6.70;;;;;;;;;;6136117;23;20381;-91
2023/06/26 05:55:57;;;;;;;11.60;7.47;;;;;;;;;;6136326;23;20388;-91
2023/06/26 05:58:24;;;;;;;10.10;7.20;;;;;;;;;;6135833;23;20396;-92
2023/06/26 06:00:50;;;;;;;8.43;6.40;;;;;;;;;;6135765;23;20393;-91
2023/06/26 06:03:16;;;;;;;11.70;6.47;;;;;;;;;;6134340;23;20490;-91
2023/06/26 06:05:42;;;;;;;7.80;6.00;;;;;;;;;;6138531;23;20411;-92
2023/06/26 06:08:09;;;;;;;7.67;6.87;;;;;;;;;;6135784;23;20428;-90
2023/06/26 06:10:35;;;;;;;9.47;7.57;;;;;;;;;;6135376;23;20383;-91
2023/06/26 06:13:01;;;;;;;7.73;6.93;;;;;;;;;;6164445;23;20356;-92
2023/06/26 06:15:29;;;;;;;8.40;6.87;;;;;;;;;;6192540;23;20407;-92
2023/06/26 06:17:55;;;;;;;9.20;7.00;;;;;;;;;;6193686;23;20379;-91
2023/06/26 06:20:21;;;;;;;7.13;6.43;;;;;;;;;;6197988;23;20385;-90
2023/06/26 06:22:48;;;;;;;8.03;7.20;;;;;;;;;;6223363;23;20409;-90
2023/06/26 06:25:14;;;;;;;9.53;6.67;;;;;;;;;;6224612;23;20431;-87
2023/06/26 06:27:40;;;;;;;10.23;7.67;;;;;;;;;;6223407;23;20418;-89
2023/06/26 06:30:06;;;;;;;8.17;6.40;;;;;;;;;;6223802;23;20461;-89
2023/06/26 06:32:33;;;;;;;7.20;6.13;;;;;;;;;;6221649;23;20394;-89
2023/06/26 06:35:09;;;;;;;6.50;5.80;;;;;;;;;;6235407;23;20379;-89
2023/06/26 06:37:35;;;;;;;7.90;7.10;;;;;;;;;;6222885;23;20821;-89
2023/06/26 06:40:01;;;;;;;8.70;5.77;;;;;;;;;;6226708;23;20397;-89
2023/06/26 06:42:27;;;;;;;6.40;5.80;;;;;;;;;;6224894;23;20378;-90
2023/06/26 06:44:53;;;;;;;9.47;6.93;;;;;;;;;;6224801;23;20412;-88
2023/06/26 06:47:19;;;;;;;8.07;5.87;;;;;;;;;;6229115;23;20506;-90
2023/06/26 06:49:45;;;;;;;10.10;6.80;;;;;;;;;;6250634;23;20392;-90
2023/06/26 06:52:11;;;;;;;7.13;6.30;;;;;;;;;;6224424;23;20409;-89
2023/06/26 06:54:53;;;;;;;7.07;6.37;;;;;;;;;;6225404;23;20832;-89
2023/06/26 06:57:20;;;;;;;7.53;6.17;;;;;;;;;;6223381;23;20766;-89
2023/06/26 06:59:47;;;;;;;8.57;7.10;;;;;;;;;;6227430;23;20378;-89
2023/06/26 07:02:13;;;;;;;6.70;6.07;;;;;;;;;;6226847;23;20457;-89
2023/06/26 07:04:39;;;;;;;6.43;5.50;;;;;;;;;;6224914;23;20378;-89
2023/06/26 07:07:05;;;;;;;9.03;5.50;;;;;;;;;;6225657;23;20424;-89
2023/06/26 07:09:33;;;;;;;8.00;6.77;;;;;;;;;;6226175;23;20444;-90
2023/06/26 07:11:58;;;;;;;7.70;6.90;;;;;;;;;;6229190;23;20378;-89
2023/06/26 07:14:24;;;;;;;6.03;5.43;;;;;;;;;;6223651;23;20464;-90
2023/06/26 07:16:50;;;;;;;8.63;6.37;;;;;;;;;;6224605;23;20899;-90
2023/06/26 07:19:16;;;;;;;8.70;6.43;;;;;;;;;;6224682;23;20539;-89
2023/06/26 07:22:00;;;;;;;8.30;5.80;;;;;;;;;;6223048;23;20375;-90
2023/06/26 07:24:29;;;;;;;8.67;6.57;;;;;;;;;;6228526;23;20448;-93
2023/06/26 07:26:55;;;;;;;7.20;6.50;;;;;;;;;;6226036;23;20457;-90
2023/06/26 07:29:21;;;;;;;15.83;6.60;;;;;;;;;;6223583;23;20903;-91
2023/06/26 07:31:47;;;;;;;6.50;5.90;;;;;;;;;;6226284;23;20393;-92
2023/06/26 07:34:13;;;;;;;9.00;6.40;;;;;;;;;;6223659;23;20402;-91
2023/06/26 07:36:39;;;;;;;9.60;6.40;;;;;;;;;;6223940;23;20382;-92
2023/06/26 07:39:05;;;;;;;7.30;6.50;;;;;;;;;;6223909;23;20385;-92
2023/06/26 07:41:31;;;;;;;8.00;6.00;;;;;;;;;;6223251;23;20410;-91
2023/06/26 07:43:59;;;;;;;6.10;5.03;;;;;;;;;;6223276;23;20386;-92
2023/06/26 07:46:25;;;;;;;7.33;6.20;;;;;;;;;;6228006;23;20434;-92
2023/06/26 07:48:51;;;;;;;6.90;5.97;;;;;;;;;;6224768;23;20389;-90
2023/06/26 07:51:17;;;;;;;7.20;6.30;;;;;;;;;;6224959;23;20370;-90
2023/06/26 07:53:43;;;;;;;8.37;5.97;;;;;;;;;;6225988;23;20386;-89
2023/06/26 07:56:09;;;;;;;6.33;5.73;;;;;;;;;;6226760;23;20382;-90
2023/06/26 07:58:35;;;;;;;8.97;6.20;;;;;;;;;;6224306;23;20378;-90
2023/06/26 08:01:01;;;;;;;8.40;6.20;;;;;;;;;;6227978;23;20371;-89
2023/06/26 08:03:29;;;;;;;6.73;6.07;;;;;;;;;;6226951;23;20493;-92
2023/06/26 08:05:55;;;;;;;11.77;5.40;;;;;;;;;;6229473;23;20378;-90
2023/06/26 08:08:21;;;;;;;10.03;5.90;;;;;;;;;;6226764;23;20421;-91
2023/06/26 08:10:47;;;;;;;14.27;6.57;;;;;;;;;;6227176;23;20379;-91
2023/06/26 08:13:13;;;;;;;9.37;6.67;;;;;;;;;;6227001;23;20385;-90
2023/06/26 08:15:39;;;;;;;8.20;5.50;;;;;;;;;;6227105;23;20394;-90
2023/06/26 08:18:05;;;;;;;8.00;5.60;;;;;;;;;;6228557;23;20492;-90
2023/06/26 08:20:31;;;;;;;6.90;6.20;;;;;;;;;;6224468;23;20378;-88
2023/06/26 08:22:57;;;;;;;6.50;5.83;;;;;;;;;;6226440;23;20381;-90
2023/06/26 08:25:23;;;;;;;6.97;6.30;;;;;;;;;;6223891;23;20378;-89
2023/06/26 08:27:52;;;;;;;14.87;5.90;;;;;;;;;;6228031;23;20202;-92
2023/06/26 08:30:18;;;;;;;6.27;5.63;;;;;;;;;;6225496;23;20428;-91
2023/06/26 08:32:44;;;;;;;6.80;6.10;;;;;;;;;;6224014;23;20386;-90
2023/06/26 08:35:10;;;;;;;6.17;5.53;;;;;;;;;;6224701;23;20424;-88
2023/06/26 08:37:36;;;;;;;7.23;6.47;;;;;;;;;;6248930;23;20371;-89
2023/06/26 08:40:02;;;;;;;6.43;5.80;;;;;;;;;;6224328;23;20465;-89
2023/06/26 08:42:28;;;;;;;6.83;5.60;;;;;;;;;;6225260;23;20414;-89
2023/06/26 08:44:54;;;;;;;6.30;5.37;;;;;;;;;;6227594;23;20678;-91
2023/06/26 08:47:20;;;;;;;6.27;5.40;;;;;;;;;;6225868;23;20413;-89
2023/06/26 08:49:46;;;;;;;7.00;6.13;;;;;;;;;;6229927;23;20472;-88
2023/06/26 08:52:20;;;;;;;6.20;5.60;;;;;;;;;;6251962;23;20378;-89
2023/06/26 08:54:47;;;;;;;6.37;5.77;;;;;;;;;;6226844;23;20377;-89
2023/06/26 08:57:14;;;;;;;8.27;6.17;;;;;;;;;;6226767;23;20386;-89
2023/06/26 08:59:40;;;;;;;6.50;5.80;;;;;;;;;;6227785;23;20389;-89
2023/06/26 09:02:06;;;;;;;7.80;5.87;;;;;;;;;;6225988;23;21002;-89
2023/06/26 09:04:32;;;;;;;6.23;5.23;;;;;;;;;;6227243;23;20424;-89
2023/06/26 09:07:16;;;;;;;;;;;;;;;;;;;;;
2023/06/26 09:09:43;;;;;;;6.63;5.80;;;;;;;;;;6250821;23;20394;-89
2023/06/26 09:12:09;;;;;;;6.30;4.73;;;;;;;;;;6223945;23;20386;-90
2023/06/26 09:14:35;;;;;;;6.27;5.67;;;;;;;;;;6225258;23;20896;-88
2023/06/26 09:17:02;;;;;;;7.43;6.73;;;;;;;;;;6225502;22;20369;-90
2023/06/26 09:19:28;;;;;;;7.07;6.13;;;;;;;;;;6226046;23;20370;-88
2023/06/26 09:21:55;;;;;;;8.30;6.00;;;;;;;;;;6224777;23;20385;-90
2023/06/26 09:24:22;;;;;;;7.20;6.17;;;;;;;;;;6228933;22;20370;-90
2023/06/26 09:26:48;;;;;;;6.63;5.93;;;;;;;;;;6227722;23;20418;-91
2023/06/26 09:29:14;;;;;;;7.13;6.43;;;;;;;;;;6226549;23;20378;-88
2023/06/26 09:31:40;;;;;;;6.03;5.43;;;;;;;;;;6224340;23;20680;-89
2023/06/26 09:34:06;;;;;;;6.43;5.83;;;;;;;;;;6224867;23;20402;-90
2023/06/26 09:36:36;;;;;;;6.30;5.70;;;;;;;;;;6223843;23;20378;-90
2023/06/26 09:39:08;;;;;;;7.27;6.30;;;;;;;;;;6227286;23;20906;-89
2023/06/26 09:41:34;;;;;;;6.07;5.57;;;;;;;;;;6228083;23;20378;-89
2023/06/26 09:44:03;;;;;;;7.57;6.60;;;;;;;;;;6223785;23;20378;-89
2023/06/26 09:46:29;;;;;;;6.53;5.93;;;;;;;;;;6226409;23;20517;-89
2023/06/26 09:49:02;;;;;;;6.90;6.20;;;;;;;;;;6224627;23;20406;-89
2023/06/26 09:51:30;;;;;;;6.80;6.20;;;;;;;;;;6226426;23;20382;-90
2023/06/26 09:53:56;;;;;;;7.43;6.80;;;;;;;;;;6224492;23;20386;-89
2023/06/26 09:56:23;;;;;;;8.50;6.57;;;;;;;;;;6228781;23;20390;-90
2023/06/26 09:58:49;;;;;;;7.27;6.10;;;;;;;;;;6228162;23;20405;-89
2023/06/26 10:01:15;;;;;;;7.57;6.47;;;;;;;;;;6257836;23;20389;-90
2023/06/26 10:03:43;;;;;;;7.53;6.70;;;;;;;;;;6234885;23;20387;-87
2023/06/26 10:06:09;;;;;;;6.50;5.80;;;;;;;;;;6230234;23;20370;-89
2023/06/26 10:08:35;;;;;;;7.27;6.40;;;;;;;;;;6232648;23;20382;-91
2023/06/26 10:11:01;;;;;;;7.30;6.60;;;;;;;;;;6233017;23;20761;-92
2023/06/26 10:13:28;;;;;;;6.40;5.80;;;;;;;;;;6225394;23;20387;-89
2023/06/26 10:15:57;;;;;;;7.43;6.73;;;;;;;;;;6237692;23;20422;-91
2023/06/26 10:18:24;;;;;;;8.17;7.37;;;;;;;;;;6228183;23;20493;-91
2023/06/26 10:24:06;;;;;;;9.13;7.27;;;;;;;;;;6236000;23;20445;-92
2023/06/26 10:26:32;;;;;;;10.27;6.70;;;;;;;;;;6207014;23;20435;-93
2023/06/26 10:28:59;;;;;;;9.10;7.27;;;;;;;;;;6209512;23;20422;-93
2023/06/26 10:31:26;;;;;;;8.93;8.03;;;;;;;;;;6213607;23;20478;-93
2023/06/26 10:33:52;;;;;;;7.83;7.03;;;;;;;;;;6208746;23;20379;-93
2023/06/26 10:36:19;;;;;;;8.70;7.30;;;;;;;;;;6175207;23;20388;-94
2023/06/26 10:38:58;;;;;;;9.70;6.93;;;;;;;;;;6151823;23;20411;-93
2023/06/26 10:41:25;;;;;;;11.20;7.90;;;;;;;;;;6174008;23;20448;-93
2023/06/26 10:44:00;;;;;;;14.00;7.00;;;;;;;;;;6148326;23;20467;-92
2023/06/26 10:46:26;;;;;;;8.40;7.50;;;;;;;;;;6174374;23;20418;-92
2023/06/26 10:49:01;;;;;;;7.57;6.87;;;;;;;;;;6151334;23;20403;-93
2023/06/26 10:51:27;;;;;;;8.30;7.40;;;;;;;;;;6149207;23;20391;-94
2023/06/26 10:53:57;;;;;;;8.83;8.03;;;;;;;;;;6151113;23;20415;-94
2023/06/26 10:56:42;;;;;;;7.63;6.93;;;;;;;;;;6151323;23;20571;-92
2023/06/26 10:59:31;;;;;;;14.10;8.27;;;;;;;;;;6152375;23;20387;-92
2023/06/26 11:04:53;;;;;;;7.60;6.80;;;;;;;;;;6227485;23;20457;-94
2023/06/26 11:07:19;;;;;;;8.17;7.47;;;;;;;;;;6177487;23;20450;-94
2023/06/26 11:10:07;;;;;;;8.00;7.30;;;;;;;;;;6204302;23;20423;-95
2023/06/26 11:12:41;;;;;;;8.43;7.53;;;;;;;;;;6201255;23;20387;-93
2023/06/26 11:15:15;;;;;;;9.90;7.57;;;;;;;;;;6202698;23;20385;-94
2023/06/26 11:17:41;;;;;;;9.50;7.30;;;;;;;;;;6176952;23;20451;-95
2023/06/26 11:20:07;;;;;;;7.73;6.63;;;;;;;;;;6178799;23;20389;-94
2023/06/26 11:22:35;;;;;;;8.50;7.60;;;;;;;;;;6178630;23;20375;-93
2023/06/26 11:25:03;;;;;;;8.73;7.30;;;;;;;;;;6178143;23;20438;-95
2023/06/26 11:27:47;;;;;;;8.00;6.53;;;;;;;;;;6174125;23;20454;-95
2023/06/26 11:30:23;;;;;;;7.93;7.13;;;;;;;;;;6174036;23;20384;-95
2023/06/26 11:32:49;;;;;;;9.90;7.70;;;;;;;;;;6180625;23;20482;-95
2023/06/26 11:35:42;;;;;;;8.67;7.77;;;;;;;;;;6186162;23;20415;-96
2023/06/26 11:38:08;;;;;;;7.70;7.00;;;;;;;;;;6210534;23;20374;-95
2023/06/26 11:40:36;;;;;;;8.87;7.40;;;;;;;;;;6182544;23;20387;-93
2023/06/26 11:43:06;;;;;;;7.83;6.90;;;;;;;;;;6203667;23;20410;-96
2023/06/26 11:45:34;;;;;;;9.53;7.40;;;;;;;;;;6229920;23;20356;-95
2023/06/26 11:48:00;;;;;;;8.90;7.90;;;;;;;;;;6178616;23;20506;-94
2023/06/26 11:50:26;;;;;;;8.50;7.80;;;;;;;;;;6180176;23;20395;-94
2023/06/26 11:52:57;;;;;;;7.60;6.90;;;;;;;;;;6203270;23;20409;-93
2023/06/26 11:55:23;;;;;;;8.20;7.20;;;;;;;;;;6174950;23;20374;-92
2023/06/26 11:57:50;;;;;;;8.00;7.30;;;;;;;;;;6174327;23;20375;-94
2023/06/26 12:00:18;;;;;;;8.43;7.63;;;;;;;;;;6200144;23;20384;-93
2023/06/26 12:02:45;;;;;;;7.77;6.60;;;;;;;;;;6174822;23;20387;-92
2023/06/26 12:05:15;;;;;;;10.17;7.10;;;;;;;;;;6199037;23;20414;-96
2023/06/26 12:07:42;;;;;;;8.07;6.93;;;;;;;;;;6202373;23;20430;-95
2023/06/26 12:10:09;;;;;;;8.67;7.77;;;;;;;;;;6114147;23;20397;-95
2023/06/26 12:12:38;;;;;;;9.70;6.63;;;;;;;;;;6114270;23;20405;-96
2023/06/26 12:41:05;;;;;;;7.40;6.70;;;;;;;;;;6194376;23;20418;-93
2023/06/26 12:43:31;;;;;;;7.33;6.63;;;;;;;;;;6169677;23;20376;-94
2023/06/26 12:45:58;;;;;;;7.53;6.53;;;;;;;;;;6145055;23;20518;-92
2023/06/26 12:48:43;;;;;;;7.53;6.83;;;;;;;;;;6143584;23;20495;-93
2023/06/26 12:51:13;;;;;;;7.30;6.70;;;;;;;;;;6144121;23;20895;-91
2023/06/26 12:53:42;;;;;;;8.10;7.30;;;;;;;;;;6146774;23;20376;-93
2023/06/26 12:56:08;;;;;;;7.03;6.33;;;;;;;;;;6142728;23;20408;-90
2023/06/26 12:58:35;;;;;;;7.90;7.10;;;;;;;;;;6145794;23;20380;-93
2023/06/26 13:01:03;;;;;;;9.80;6.53;;;;;;;;;;6144916;23;20411;-92
2023/06/26 13:03:29;;;;;;;8.03;7.33;;;;;;;;;;6146968;23;20388;-94
2023/06/26 13:05:55;;;;;;;11.73;6.97;;;;;;;;;;6142628;23;20380;-93
2023/06/26 13:08:21;;;;;;;10.47;6.83;;;;;;;;;;6142133;23;20530;-93
2023/06/26 13:10:47;;;;;;;9.40;7.70;;;;;;;;;;6143762;23;20376;-93
2023/06/26 13:13:13;;;;;;;7.67;6.87;;;;;;;;;;6141565;23;20739;-93
2023/06/26 13:15:40;;;;;;;8.00;7.20;;;;;;;;;;6143169;23;20394;-93
2023/06/26 13:18:06;;;;;;;10.90;6.00;;;;;;;;;;6140933;23;20469;-92
2023/06/26 13:20:35;;;;;;;9.60;6.43;;;;;;;;;;6145014;23;20384;-93
2023/06/26 13:23:01;;;;;;;8.17;6.20;;;;;;;;;;6143735;23;20389;-92
2023/06/26 13:25:27;;;;;;;7.53;6.83;;;;;;;;;;6141317;23;20391;-92
2023/06/26 13:27:53;;;;;;;6.83;6.20;;;;;;;;;;6142889;23;20424;-91
2023/06/26 13:30:19;;;;;;;6.30;5.70;;;;;;;;;;6143045;23;20844;-92
2023/06/26 13:32:47;;;;;;;6.90;5.40;;;;;;;;;;6144341;23;20387;-92
2023/06/26 13:35:14;;;;;;;7.87;5.90;;;;;;;;;;6144852;23;20169;-92
2023/06/26 13:37:40;;;;;;;7.33;5.73;;;;;;;;;;6144196;23;20482;-91
2023/06/26 13:40:07;;;;;;;6.83;5.90;;;;;;;;;;6142443;23;20447;-91
2023/06/26 13:42:33;;;;;;;6.33;5.50;;;;;;;;;;6164372;23;20756;-92
2023/06/26 13:44:59;;;;;;;6.37;5.67;;;;;;;;;;6168927;23;20391;-91
2023/06/26 13:47:31;;;;;;;6.40;5.63;;;;;;;;;;6168532;23;20439;-92
2023/06/26 13:49:58;;;;;;;8.13;5.50;;;;;;;;;;6197303;23;20368;-92
2023/06/26 13:52:24;;;;;;;7.30;5.90;;;;;;;;;;6167348;23;20366;-93
2023/06/26 13:54:49;;;;;;;6.53;5.93;;;;;;;;;;6169064;23;20376;-92
2023/06/26 13:57:16;;;;;;;7.03;5.80;;;;;;;;;;6164090;23;20863;-91
2023/06/26 13:59:42;;;;;;;5.23;4.40;;;;;;;;;;6167246;23;20823;-91
2023/06/26 14:02:08;;;;;;;5.97;5.33;;;;;;;;;;6170292;23;20392;-92
2023/06/26 14:04:34;;;;;;;6.97;4.73;;;;;;;;;;6167310;23;20483;-93
2023/06/26 14:07:00;;;;;;;5.20;4.70;;;;;;;;;;6168538;23;20420;-92
2023/06/26 14:09:26;;;;;;;6.50;5.40;;;;;;;;;;6167002;23;20737;-92
2023/06/26 14:11:52;;;;;;;6.90;5.30;;;;;;;;;;6173200;23;20391;-89
2023/06/26 14:14:19;;;;;;;5.13;4.50;;;;;;;;;;6169476;23;20463;-93
2023/06/26 14:16:45;;;;;;;7.40;4.57;;;;;;;;;;6175906;23;20391;-93
2023/06/26 14:19:14;;;;;;;7.20;4.37;;;;;;;;;;6168853;23;20483;-94
2023/06/26 14:21:40;;;;;;;5.30;4.80;;;;;;;;;;6172507;23;20400;-93
2023/06/26 14:24:06;;;;;;;4.37;3.97;;;;;;;;;;6166078;23;20439;-94
2023/06/26 14:26:33;;;;;;;5.30;4.80;;;;;;;;;;6171462;23;20364;-94
2023/06/26 14:29:19;;;;;;;5.00;4.20;;;;;;;;;;6167749;23;20387;-95
2023/06/26 14:31:45;;;;;;;5.37;4.50;;;;;;;;;;6193621;23;20392;-93
2023/06/26 14:34:11;;;;;;;4.63;4.07;;;;;;;;;;6166518;23;20379;-92
2023/06/26 14:36:37;;;;;;;4.70;3.83;;;;;;;;;;6169378;23;20392;-94
2023/06/26 14:39:03;;;;;;;5.23;3.73;;;;;;;;;;6171842;23;20391;-96
2023/06/26 14:41:30;;;;;;;6.43;4.40;;;;;;;;;;6170677;23;20926;-94
2023/06/26 14:43:56;;;;;;;5.10;3.80;;;;;;;;;;6168318;23;20392;-94
2023/06/26 14:46:22;;;;;;;5.23;3.67;;;;;;;;;;6168995;23;20388;-94
2023/06/26 14:48:48;;;;;;;5.17;4.13;;;;;;;;;;6168914;23;20380;-94
2023/06/26 14:51:14;;;;;;;4.93;3.60;;;;;;;;;;6168442;23;20415;-93
2023/06/26 14:53:41;;;;;;;5.90;3.83;;;;;;;;;;6169402;23;20400;-94
2023/06/26 14:56:08;;;;;;;4.40;3.60;;;;;;;;;;6170804;23;20483;-95
2023/06/26 14:58:34;;;;;;;6.00;4.10;;;;;;;;;;6169534;23;20420;-93
2023/06/26 15:01:03;;;;;;;5.60;4.47;;;;;;;;;;6169010;23;20958;-93
2023/06/26 15:03:29;;;;;;;5.10;4.27;;;;;;;;;;6167693;23;20647;-95
2023/06/26 15:05:55;;;;;;;5.03;3.97;;;;;;;;;;6170108;23;20710;-95
2023/06/26 15:08:21;;;;;;;5.23;3.90;;;;;;;;;;6170533;23;20423;-94
2023/06/26 15:10:47;;;;;;;4.93;3.77;;;;;;;;;;6171539;23;20376;-96
2023/06/26 15:13:13;;;;;;;6.07;3.77;;;;;;;;;;6171362;23;20454;-95
2023/06/26 15:15:39;;;;;;;8.13;4.73;;;;;;;;;;6174273;23;20868;-95